Дата Пункты Температура Давл., мм. Влажн., % Ветер Погодные явления
Воздуха Воды Направл. Скорость
29.06.19 09:00 Одесса 21.0 23.0 757 45 Пн-З 2 09 ГОДИН
29.06.19 06:00 Одесса 17.0 24.0 757 59 Пн-З 2 06 ГОДИН
29.06.19 03:00 Одесса 17.0 24.0 757 53 Пн-З 2 03 ГОДИНИ
28.06.19 09:00 Одесса 22.0 24.0 755 36 Пн-З 2 21 ГОДИНУ
28.06.19 06:00 Одесса 25.0 24.0 754 31 Пн-З 3 18 ГОДИН
28.06.19 03:00 Одесса 28.0 24.0 753 30 Пн-З 3 15 ГОДИН
28.06.19 12:00 Одесса 27.0 25.0 753 40 Пн-З 4 12 ГОДИН
28.06.19 09:00 Одесса 23.0 25.0 754 56 Пн-З 2 09 ГОДИН
28.06.19 06:00 Одесса 21.0 25.0 753 65 Пн-З 3 06 ГОДИН
28.06.19 03:00 Одесса 22.0 25.0 752 85 Пн-З 4 03 ГОДИНИ
27.06.19 09:00 Одесса 28.0 26.0 752 62 Пд-З 1 21 ГОДИНУ
27.06.19 06:00 Одесса 28.0 25.0 753 68 Пд 4 18 ГОДИН
27.06.19 03:00 Одесса 29.0 25.0 755 58 Пд 5 15 ГОДИН
27.06.19 12:00 Одесса 28.0 25.0 757 53 Пд 6 12 ГОДИН
27.06.19 09:00 Одесса 26.0 25.0 759 52 Пд 3 09 ГОДИН
27.06.19 06:00 Одесса 25.0 25.0 760 64 Пд-С 2 06 ГОДИН
27.06.19 03:00 Одесса 23.0 25.0 761 61 Пн-С 1 03 ГОДИНИ
26.06.19 09:00 Одесса 26.0 25.0 762 41 Пн 0 21 ГОДИНУ
26.06.19 06:00 Одесса 29.0 25.0 762 37 Пд 1 18 ГОДИН
26.06.19 03:00 Одесса 29.0 25.0 763 38 Пд 2 15 ГОДИН
Количество строк
1 2 3 4 5 6 7 8 9 10
Page 8 of 511